createdAt,value
2017-05-18T00:00:56.461Z,0
2017-05-18T00:01:56.447Z,0
2017-05-18T00:02:56.442Z,0
2017-05-18T00:03:56.430Z,0
2017-05-18T00:04:56.422Z,0
2017-05-18T00:05:56.403Z,0
2017-05-18T00:06:56.405Z,0
2017-05-18T00:07:56.391Z,0
2017-05-18T00:08:56.378Z,0
2017-05-18T00:09:56.367Z,0
2017-05-18T00:10:56.353Z,0
2017-05-18T00:11:56.348Z,0
2017-05-18T00:12:56.337Z,0
2017-05-18T00:13:56.326Z,0
2017-05-18T00:14:56.321Z,0
2017-05-18T00:15:56.003Z,0
2017-05-18T00:16:56.300Z,0
2017-05-18T00:17:56.286Z,0
2017-05-18T00:18:56.327Z,0
2017-05-18T00:19:56.268Z,0
2017-05-18T00:20:56.256Z,0
2017-05-18T00:21:56.245Z,0
2017-05-18T00:22:56.237Z,0
2017-05-18T00:23:56.221Z,0
2017-05-18T00:24:56.217Z,0
2017-05-18T00:25:56.268Z,0
2017-05-18T00:26:56.192Z,0
2017-05-18T00:27:56.189Z,0
2017-05-18T00:28:56.244Z,0
2017-05-18T00:29:56.162Z,0
2017-05-18T00:30:56.152Z,0
2017-05-18T00:31:56.140Z,0
2017-05-18T00:32:56.136Z,0
2017-05-18T00:33:56.128Z,0
2017-05-18T00:34:56.112Z,0
2017-05-18T00:35:56.101Z,0
2017-05-18T00:36:56.094Z,0
2017-05-18T00:37:56.089Z,0
2017-05-18T00:38:56.072Z,0
2017-05-18T00:39:56.059Z,0
2017-05-18T00:40:56.046Z,0
2017-05-18T00:41:56.047Z,0
2017-05-18T00:42:56.037Z,0
2017-05-18T00:43:56.025Z,0
2017-05-18T00:44:56.010Z,0
2017-05-18T00:45:56.006Z,0
2017-05-18T00:46:55.998Z,0
2017-05-18T00:47:55.991Z,0
2017-05-18T00:48:55.977Z,0
2017-05-18T00:49:55.971Z,0
2017-05-18T00:50:55.965Z,0
2017-05-18T00:51:55.941Z,0
2017-05-18T00:52:55.639Z,0
2017-05-18T00:53:55.924Z,0
2017-05-18T00:54:55.917Z,0
2017-05-18T00:55:55.900Z,0
2017-05-18T00:56:55.887Z,0
2017-05-18T00:57:55.884Z,0
2017-05-18T00:58:55.870Z,0
2017-05-18T00:59:55.868Z,0
2017-05-18T01:00:55.850Z,0
2017-05-18T01:01:55.839Z,0
2017-05-18T01:02:55.838Z,0
2017-05-18T01:03:55.826Z,0
2017-05-18T01:04:55.818Z,0
2017-05-18T01:05:55.805Z,0
2017-05-18T01:06:55.795Z,0
2017-05-18T01:07:55.790Z,0
2017-05-18T01:08:55.773Z,0
2017-05-18T01:09:55.767Z,0
2017-05-18T01:10:55.757Z,0
2017-05-18T01:11:55.742Z,0
2017-05-18T01:12:55.789Z,0
2017-05-18T01:13:55.725Z,0
2017-05-18T01:14:55.720Z,0
2017-05-18T01:15:55.703Z,0
2017-05-18T01:16:55.696Z,0
2017-05-18T01:17:55.683Z,0
2017-05-18T01:18:55.676Z,0
2017-05-18T01:19:55.666Z,0
2017-05-18T01:20:55.653Z,0
2017-05-18T01:21:55.653Z,0
2017-05-18T01:22:55.645Z,0
2017-05-18T01:23:55.339Z,0
2017-05-18T01:24:55.619Z,0
2017-05-18T01:25:55.609Z,0
2017-05-18T01:26:55.599Z,0
2017-05-18T01:27:55.646Z,0
2017-05-18T01:28:55.572Z,0
2017-05-18T01:29:55.573Z,0
2017-05-18T01:30:55.555Z,0
2017-05-18T01:31:55.545Z,0
2017-05-18T01:32:55.535Z,0
2017-05-18T01:33:55.537Z,0
2017-05-18T01:34:55.514Z,0
2017-05-18T01:35:55.506Z,0
2017-05-18T01:36:55.192Z,0
2017-05-18T01:37:55.496Z,0
2017-05-18T01:38:55.469Z,0
2017-05-18T01:39:55.529Z,0
2017-05-18T01:40:55.482Z,0
2017-05-18T01:41:55.140Z,0
2017-05-18T01:42:55.443Z,0
2017-05-18T01:43:55.425Z,0
2017-05-18T01:44:55.412Z,0
2017-05-18T01:45:55.400Z,0
2017-05-18T01:46:55.394Z,0
2017-05-18T01:47:55.377Z,0
2017-05-18T01:48:55.374Z,0
2017-05-18T01:49:55.367Z,0
2017-05-18T01:50:55.346Z,0
2017-05-18T01:51:55.347Z,0
2017-05-18T01:52:55.330Z,0
2017-05-18T01:53:55.023Z,0
2017-05-18T01:54:55.065Z,0
2017-05-18T01:55:55.295Z,0
2017-05-18T01:56:55.287Z,0
2017-05-18T01:57:55.272Z,0
2017-05-18T01:58:55.272Z,0
2017-05-18T01:59:55.263Z,0
2017-05-18T02:00:55.258Z,0
2017-05-18T02:01:55.232Z,0
2017-05-18T02:02:55.223Z,0
2017-05-18T02:03:55.213Z,0
2017-05-18T02:04:55.216Z,0
2017-05-18T02:05:55.192Z,0
2017-05-18T02:06:55.196Z,0
2017-05-18T02:07:55.170Z,0
2017-05-18T02:08:55.162Z,0
2017-05-18T02:09:55.157Z,0
2017-05-18T02:10:55.138Z,0
2017-05-18T02:11:55.124Z,0
2017-05-18T02:12:55.132Z,0
2017-05-18T02:13:55.115Z,0
2017-05-18T02:14:55.103Z,0
2017-05-18T02:15:55.092Z,0
2017-05-18T02:16:55.076Z,0
2017-05-18T02:17:55.073Z,0
2017-05-18T02:18:55.064Z,0
2017-05-18T02:19:54.752Z,0
2017-05-18T02:20:55.036Z,0
2017-05-18T02:21:55.029Z,0
2017-05-18T02:22:55.021Z,0
2017-05-18T02:23:54.998Z,0
2017-05-18T02:24:54.989Z,0
2017-05-18T02:25:54.995Z,0
2017-05-18T02:26:54.977Z,0
2017-05-18T02:27:54.967Z,0
2017-05-18T02:28:54.957Z,0
2017-05-18T02:29:54.957Z,0
2017-05-18T02:30:54.954Z,0
2017-05-18T02:31:54.928Z,0
2017-05-18T02:32:54.908Z,0
2017-05-18T02:33:54.902Z,0
2017-05-18T02:34:54.888Z,0
2017-05-18T02:35:54.584Z,0
2017-05-18T02:36:54.874Z,0
2017-05-18T02:37:54.858Z,0
2017-05-18T02:38:54.850Z,0
2017-05-18T02:39:54.535Z,0
2017-05-18T02:40:54.594Z,0
2017-05-18T02:41:54.516Z,0
2017-05-18T02:42:54.809Z,0
2017-05-18T02:43:54.793Z,0
2017-05-18T02:44:54.849Z,0
2017-05-18T02:45:54.773Z,0
2017-05-18T02:46:54.760Z,0
2017-05-18T02:47:54.756Z,0
2017-05-18T02:48:54.452Z,0
2017-05-18T02:49:54.736Z,0
2017-05-18T02:50:54.726Z,0
2017-05-18T02:51:54.714Z,0
2017-05-18T02:52:54.705Z,0
2017-05-18T02:53:54.695Z,0
2017-05-18T02:54:54.687Z,0
2017-05-18T02:55:54.672Z,0
2017-05-18T02:56:54.663Z,0
2017-05-18T02:57:54.647Z,0
2017-05-18T02:58:54.639Z,0
2017-05-18T02:59:54.634Z,0
2017-05-18T03:00:54.622Z,0
2017-05-18T03:01:54.657Z,0
2017-05-18T03:02:54.604Z,0
2017-05-18T03:03:54.662Z,0
2017-05-18T03:04:54.579Z,0
2017-05-18T03:05:54.563Z,0
2017-05-18T03:06:54.252Z,0
2017-05-18T03:07:54.546Z,0
2017-05-18T03:08:54.533Z,0
2017-05-18T03:09:54.592Z,0
2017-05-18T03:10:54.512Z,0
2017-05-18T03:11:54.505Z,0
2017-05-18T03:12:54.504Z,0
2017-05-18T03:13:54.487Z,0
2017-05-18T03:14:54.479Z,0
2017-05-18T03:15:54.466Z,0
2017-05-18T03:16:54.147Z,0
2017-05-18T03:17:54.441Z,0
2017-05-18T03:18:54.427Z,0
2017-05-18T03:19:54.426Z,0
2017-05-18T03:20:54.410Z,5
2017-05-18T03:21:54.404Z,5
2017-05-18T03:22:54.096Z,5
2017-05-18T03:23:54.378Z,5
2017-05-18T03:24:54.373Z,5
2017-05-18T03:25:54.356Z,10
2017-05-18T03:26:54.355Z,10
2017-05-18T03:27:54.342Z,10
2017-05-18T03:28:54.321Z,10
2017-05-18T03:29:54.320Z,15
2017-05-18T03:30:54.004Z,15
2017-05-18T03:31:54.349Z,20
2017-05-18T03:32:54.285Z,20
2017-05-18T03:33:54.271Z,20
2017-05-18T03:34:54.263Z,25
2017-05-18T03:35:54.252Z,25
2017-05-18T03:36:54.243Z,30
2017-05-18T03:37:54.234Z,30
2017-05-18T03:38:54.227Z,35
2017-05-18T03:39:54.214Z,35
2017-05-18T03:40:54.223Z,40
2017-05-18T03:41:54.186Z,45
2017-05-18T03:42:54.180Z,45
2017-05-18T03:43:54.171Z,50
2017-05-18T03:44:54.158Z,50
2017-05-18T03:45:54.139Z,55
2017-05-18T03:46:54.134Z,60
2017-05-18T03:47:54.126Z,65
2017-05-18T03:48:54.114Z,65
2017-05-18T03:49:54.109Z,70
2017-05-18T03:50:54.092Z,75
2017-05-18T03:51:54.088Z,80
2017-05-18T03:52:54.076Z,80
2017-05-18T03:53:54.074Z,85
2017-05-18T03:54:54.057Z,90
2017-05-18T03:55:54.035Z,95
2017-05-18T03:56:54.026Z,100
2017-05-18T03:57:54.023Z,100
2017-05-18T03:58:54.006Z,105
2017-05-18T03:59:54.002Z,110
2017-05-18T04:00:53.987Z,115
2017-05-18T04:01:53.975Z,120
2017-05-18T04:02:53.969Z,125
2017-05-18T04:03:53.957Z,125
2017-05-18T04:04:53.939Z,130
2017-05-18T04:05:53.939Z,135
2017-05-18T04:06:53.926Z,140
2017-05-18T04:07:53.915Z,145
2017-05-18T04:08:53.907Z,150
2017-05-18T04:09:53.599Z,150
2017-05-18T04:10:53.631Z,155
2017-05-18T04:11:53.879Z,160
2017-05-18T04:12:53.565Z,165
2017-05-18T04:13:53.545Z,170
2017-05-18T04:14:53.839Z,170
2017-05-18T04:15:53.831Z,175
2017-05-18T04:16:53.823Z,180
2017-05-18T04:17:53.822Z,185
2017-05-18T04:18:53.812Z,190
2017-05-18T04:19:53.790Z,195
2017-05-18T04:20:53.778Z,195
2017-05-18T04:21:53.769Z,200
2017-05-18T04:22:53.762Z,205
2017-05-18T04:23:53.753Z,210
2017-05-18T04:24:53.740Z,215
2017-05-18T04:25:53.725Z,215
2017-05-18T04:26:53.711Z,220
2017-05-18T04:27:53.715Z,225
2017-05-18T04:28:53.703Z,225
2017-05-18T04:29:53.689Z,230
2017-05-18T04:30:53.685Z,235
2017-05-18T04:31:53.671Z,235
2017-05-18T04:32:53.663Z,240
2017-05-18T04:33:53.650Z,245
2017-05-18T04:34:53.633Z,250
2017-05-18T04:35:53.623Z,295
2017-05-18T04:36:53.620Z,420
2017-05-18T04:37:53.311Z,485
2017-05-18T04:38:53.593Z,495
2017-05-18T04:39:53.585Z,510
2017-05-18T04:40:53.578Z,525
2017-05-18T04:41:53.565Z,540
2017-05-18T04:42:53.553Z,545
2017-05-18T04:43:53.538Z,565
2017-05-18T04:44:53.533Z,595
2017-05-18T04:45:53.519Z,615
2017-05-18T04:46:53.514Z,615
2017-05-18T04:47:53.205Z,600
2017-05-18T04:48:53.498Z,605
2017-05-18T04:49:53.483Z,615
2017-05-18T04:50:53.479Z,620
2017-05-18T04:51:53.468Z,635
2017-05-18T04:52:53.449Z,650
2017-05-18T04:53:53.144Z,680
2017-05-18T04:54:53.434Z,700
2017-05-18T04:55:53.423Z,710
2017-05-18T04:56:53.416Z,740
2017-05-18T04:57:53.398Z,770
2017-05-18T04:58:53.090Z,745
2017-05-18T04:59:53.387Z,730
2017-05-18T05:00:53.373Z,735
2017-05-18T05:01:53.378Z,745
2017-05-18T05:02:53.352Z,755
2017-05-18T05:03:53.345Z,790
2017-05-18T05:04:53.340Z,810
2017-05-18T05:05:53.327Z,845
2017-05-18T05:06:53.319Z,880
2017-05-18T05:07:53.307Z,910
2017-05-18T05:08:53.301Z,930
2017-05-18T05:09:53.294Z,930
2017-05-18T05:10:53.282Z,940
2017-05-18T05:11:53.268Z,965
2017-05-18T05:12:53.271Z,985
2017-05-18T05:13:53.252Z,1005
2017-05-18T05:14:53.243Z,1040
2017-05-18T05:15:53.240Z,1100
2017-05-18T05:16:53.229Z,1115
2017-05-18T05:17:53.216Z,1075
2017-05-18T05:18:53.214Z,1070
2017-05-18T05:19:53.202Z,1065
2017-05-18T05:20:53.186Z,1065
2017-05-18T05:21:53.181Z,1030
2017-05-18T05:22:53.171Z,1050
2017-05-18T05:23:52.859Z,1075
2017-05-18T05:24:53.156Z,1090
2017-05-18T05:25:53.153Z,1110
2017-05-18T05:26:53.129Z,1100
2017-05-18T05:27:53.129Z,1055
2017-05-18T05:28:53.120Z,1000
2017-05-18T05:29:53.107Z,1120
2017-05-18T05:30:52.799Z,1205
2017-05-18T05:31:53.095Z,1195
2017-05-18T05:32:53.092Z,1075
2017-05-18T05:33:53.071Z,1250
2017-05-18T05:34:53.067Z,1275
2017-05-18T05:35:53.058Z,1300
2017-05-18T05:36:53.048Z,1325
2017-05-18T05:37:53.045Z,1385
2017-05-18T05:38:53.035Z,1410
2017-05-18T05:39:53.018Z,1395
2017-05-18T05:40:53.001Z,1400
2017-05-18T05:41:53.003Z,1380
2017-05-18T05:42:52.997Z,1350
2017-05-18T05:43:52.993Z,1335
2017-05-18T05:44:52.977Z,1365
2017-05-18T05:45:52.964Z,1410
2017-05-18T05:46:52.648Z,1385
2017-05-18T05:47:52.649Z,1330
2017-05-18T05:48:52.942Z,1345
2017-05-18T05:49:52.930Z,1390
2017-05-18T05:50:52.915Z,1415
2017-05-18T05:51:52.910Z,1405
2017-05-18T05:52:52.908Z,1390
2017-05-18T05:53:52.897Z,1420
2017-05-18T05:54:52.886Z,1430
2017-05-18T05:55:52.872Z,1440
2017-05-18T05:56:52.866Z,1480
2017-05-18T05:57:52.863Z,1505
2017-05-18T05:58:52.845Z,1555
2017-05-18T05:59:52.835Z,1625
2017-05-18T06:00:52.833Z,1650
2017-05-18T06:01:52.822Z,1650
2017-05-18T06:02:52.810Z,1665
2017-05-18T06:03:52.801Z,1655
2017-05-18T06:04:52.798Z,1730
2017-05-18T06:05:52.779Z,1740
2017-05-18T06:06:52.780Z,1715
2017-05-18T06:07:52.773Z,1745
2017-05-18T06:08:52.764Z,1815
2017-05-18T06:09:52.768Z,1880
2017-05-18T06:10:52.742Z,1900
2017-05-18T06:11:52.739Z,1890
2017-05-18T06:12:52.736Z,1785
2017-05-18T06:13:52.721Z,1470
2017-05-18T06:14:52.715Z,1185
2017-05-18T06:15:52.702Z,1265
2017-05-18T06:16:52.707Z,1410
2017-05-18T06:17:52.686Z,1815
2017-05-18T06:18:52.682Z,1965
2017-05-18T06:19:52.705Z,1710
2017-05-18T06:20:52.663Z,1455
2017-05-18T06:21:52.655Z,1230
2017-05-18T06:22:52.644Z,1085
2017-05-18T06:23:52.650Z,1215
2017-05-18T06:24:52.631Z,1940
2017-05-18T06:25:52.618Z,1575
2017-05-18T06:26:52.624Z,1250
2017-05-18T06:27:52.304Z,1510
2017-05-18T06:28:52.639Z,2070
2017-05-18T06:29:52.591Z,1730
2017-05-18T06:30:52.588Z,2295
2017-05-18T06:31:52.574Z,1285
2017-05-18T06:32:52.567Z,1310
2017-05-18T06:33:52.551Z,1425
2017-05-18T06:34:52.559Z,1320
2017-05-18T06:35:52.540Z,1760
2017-05-18T06:36:52.532Z,1230
2017-05-18T06:37:52.533Z,1135
2017-05-18T06:38:52.523Z,1175
2017-05-18T06:39:52.573Z,1360
2017-05-18T06:40:52.507Z,1290
2017-05-18T06:41:52.194Z,1300
2017-05-18T06:42:52.481Z,1160
2017-05-18T06:43:52.484Z,1125
2017-05-18T06:44:52.478Z,1160
2017-05-18T06:45:52.462Z,1850
2017-05-18T06:46:52.458Z,2315
2017-05-18T06:47:52.444Z,2295
2017-05-18T06:48:52.440Z,1860
2017-05-18T06:49:52.426Z,1865
2017-05-18T06:50:52.435Z,1505
2017-05-18T06:51:52.416Z,1510
2017-05-18T06:52:52.410Z,1375
2017-05-18T06:53:52.406Z,1185
2017-05-18T06:54:52.403Z,1675
2017-05-18T06:55:52.388Z,1100
2017-05-18T06:56:52.380Z,970
2017-05-18T06:57:52.380Z,1230
2017-05-18T06:58:52.364Z,995
2017-05-18T06:59:52.367Z,945
2017-05-18T07:00:52.413Z,940
2017-05-18T07:01:52.344Z,945
2017-05-18T07:02:52.348Z,1060
2017-05-18T07:03:52.335Z,1030
2017-05-18T07:04:52.319Z,1215
2017-05-18T07:05:52.312Z,1185
2017-05-18T07:06:52.007Z,1235
2017-05-18T07:07:52.304Z,1675
2017-05-18T07:08:52.294Z,2430
2017-05-18T07:09:52.284Z,2235
2017-05-18T07:10:52.275Z,1515
2017-05-18T07:11:52.275Z,1470
2017-05-18T07:12:52.258Z,1720
2017-05-18T07:13:52.266Z,1775
2017-05-18T07:14:52.249Z,1905
2017-05-18T07:15:52.236Z,2945
2017-05-18T07:16:52.230Z,2900
2017-05-18T07:17:52.218Z,2695
2017-05-18T07:18:52.216Z,2125
2017-05-18T07:19:52.208Z,1650
2017-05-18T07:20:52.199Z,1830
2017-05-18T07:21:52.190Z,2305
2017-05-18T07:22:52.184Z,2600
2017-05-18T07:23:51.879Z,3130
2017-05-18T07:24:52.173Z,3270
2017-05-18T07:25:52.162Z,2890
2017-05-18T07:26:52.153Z,3310
2017-05-18T07:27:52.153Z,3025
2017-05-18T07:28:52.142Z,2520
2017-05-18T07:29:52.138Z,2470
2017-05-18T07:30:52.130Z,2435
2017-05-18T07:31:52.116Z,2715
2017-05-18T07:32:52.114Z,2910
2017-05-18T07:33:52.111Z,2980
2017-05-18T07:34:52.103Z,2920
2017-05-18T07:35:51.499Z,2565
2017-05-18T07:36:52.099Z,2365
2017-05-18T07:37:52.087Z,2335
2017-05-18T07:38:52.142Z,2675
2017-05-18T07:39:52.067Z,3045
2017-05-18T07:40:52.067Z,3120
2017-05-18T07:41:52.059Z,2690
2017-05-18T07:42:52.062Z,2330
2017-05-18T07:43:52.056Z,2330
2017-05-18T07:44:52.054Z,2540
2017-05-18T07:45:52.041Z,2625
2017-05-18T07:46:52.037Z,2425
2017-05-18T07:47:52.040Z,2240
2017-05-18T07:48:52.035Z,2295
2017-05-18T07:49:51.805Z,2785
2017-05-18T07:50:52.016Z,3205
2017-05-18T07:51:51.724Z,2765
2017-05-18T07:52:52.020Z,2465
2017-05-18T07:53:51.715Z,2720
2017-05-18T07:54:51.760Z,3030
2017-05-18T07:55:51.769Z,2760
2017-05-18T07:56:52.012Z,2670
2017-05-18T07:57:52.002Z,2695
2017-05-18T07:58:52.001Z,2615
2017-05-18T07:59:52.002Z,3175
2017-05-18T08:00:51.995Z,3420
2017-05-18T08:01:52.000Z,3175
2017-05-18T08:02:51.992Z,2910
2017-05-18T08:03:51.996Z,2870
2017-05-18T08:04:51.686Z,2835
2017-05-18T08:05:51.988Z,3085
2017-05-18T08:06:51.983Z,3480
2017-05-18T08:07:51.986Z,3645
2017-05-18T08:08:52.016Z,3810
2017-05-18T08:09:51.985Z,3885
2017-05-18T08:10:51.979Z,3600
2017-05-18T08:11:51.987Z,3460
2017-05-18T08:12:51.979Z,2945
2017-05-18T08:13:51.980Z,3800
2017-05-18T08:14:51.982Z,3525
2017-05-18T08:15:51.974Z,3970
2017-05-18T08:16:51.968Z,4365
2017-05-18T08:17:51.977Z,3860
2017-05-18T08:18:51.968Z,3880
2017-05-18T08:19:51.976Z,4530
2017-05-18T08:20:51.971Z,3935
2017-05-18T08:21:51.970Z,3420
2017-05-18T08:22:51.968Z,3470
2017-05-18T08:23:51.964Z,3555
2017-05-18T08:24:51.969Z,3775
2017-05-18T08:25:51.963Z,3790
2017-05-18T08:26:51.959Z,4235
2017-05-18T08:27:51.963Z,4320
2017-05-18T08:28:51.975Z,3265
2017-05-18T12:27:25.212Z,990
2017-05-18T12:27:35.401Z,980
2017-05-18T12:28:35.167Z,970
2017-05-18T12:29:35.158Z,1015
2017-05-18T12:30:35.467Z,1200
2017-05-18T12:31:35.438Z,1185
2017-05-18T12:32:35.447Z,1175
2017-05-18T12:33:35.438Z,1320
2017-05-18T12:34:35.110Z,1525
2017-05-18T12:35:35.454Z,1375
2017-05-18T12:36:35.400Z,1275
2017-05-18T12:37:35.397Z,1195
2017-05-18T12:38:35.404Z,1350
2017-05-18T12:39:35.389Z,1580
2017-05-18T12:40:35.372Z,1840
2017-05-18T12:41:35.361Z,2290
2017-05-18T12:42:35.348Z,2795
2017-05-18T12:43:35.341Z,3190
2017-05-18T12:44:35.360Z,2270
2017-05-18T12:45:35.350Z,2070
2017-05-18T12:46:35.299Z,1935
2017-05-18T12:47:35.302Z,1980
2017-05-18T12:48:35.298Z,2015
2017-05-18T12:49:35.277Z,2035
2017-05-18T12:50:35.290Z,2085
2017-05-18T12:51:35.276Z,2185
2017-05-18T12:52:35.161Z,2350
2017-05-18T12:53:35.252Z,2400
2017-05-18T12:54:34.959Z,1905
2017-05-18T12:55:35.236Z,1610
2017-05-18T12:56:35.247Z,1635
2017-05-18T12:57:34.916Z,1955
2017-05-18T12:58:35.417Z,2490
2017-05-18T12:59:35.219Z,2445
2017-05-18T13:00:34.881Z,2070
2017-05-18T13:01:34.883Z,1815
2017-05-18T13:02:35.171Z,1890
2017-05-18T13:03:35.171Z,1415
2017-05-18T13:04:34.869Z,1375
2017-05-18T13:05:35.143Z,1600
2017-05-18T13:06:35.145Z,1725
2017-05-18T13:07:34.525Z,2020
2017-05-18T13:08:35.113Z,1740
2017-05-18T13:09:35.112Z,1590
2017-05-18T13:10:34.804Z,1725
2017-05-18T13:11:35.114Z,1945
2017-05-18T13:12:35.095Z,1880
2017-05-18T13:13:35.089Z,1760
2017-05-18T13:14:35.077Z,2035
2017-05-18T13:15:35.065Z,1925
2017-05-18T13:16:35.065Z,1730
2017-05-18T13:17:34.759Z,1570
2017-05-18T13:18:35.041Z,1640
2017-05-18T13:19:35.035Z,1740
2017-05-18T13:20:35.036Z,1795
2017-05-18T13:21:35.025Z,1740
2017-05-18T13:22:35.011Z,1625
2017-05-18T13:23:35.004Z,1845
2017-05-18T13:24:34.993Z,1715
2017-05-18T13:25:34.975Z,1830
2017-05-18T13:26:34.984Z,2215
2017-05-18T13:27:34.967Z,1840
2017-05-18T13:28:34.957Z,1660
2017-05-18T13:29:35.176Z,1580
2017-05-18T13:30:34.943Z,1405
2017-05-18T13:31:34.937Z,1440
2017-05-18T13:32:34.906Z,1365
2017-05-18T13:33:34.896Z,1435
2017-05-18T13:34:35.091Z,1570
2017-05-18T13:35:34.879Z,1560
2017-05-18T13:36:34.932Z,1565
2017-05-18T13:37:34.868Z,1570
2017-05-18T13:38:35.064Z,1870
2017-05-18T13:39:35.055Z,1505
2017-05-18T13:40:35.102Z,1620
2017-05-18T13:41:34.817Z,2305
2017-05-18T13:42:34.823Z,4000
2017-05-18T13:43:34.813Z,2735
2017-05-18T13:44:34.817Z,4245
2017-05-18T13:45:34.802Z,1875
2017-05-18T13:46:34.791Z,1985
2017-05-18T13:47:34.470Z,1520
2017-05-18T13:48:34.174Z,1530
2017-05-18T13:49:34.774Z,1840
2017-05-18T13:50:34.760Z,2130
2017-05-18T13:51:34.753Z,1835
2017-05-18T13:52:34.444Z,2145
2017-05-18T13:53:34.430Z,2015
2017-05-18T13:54:34.721Z,2105
2017-05-18T13:55:34.711Z,2280
2017-05-18T13:56:34.404Z,1995
2017-05-18T13:57:34.695Z,2085
2017-05-18T13:58:34.687Z,2215
2017-05-18T13:59:34.381Z,2170
2017-05-18T14:00:34.068Z,1950
2017-05-18T14:01:34.359Z,2350
2017-05-18T14:02:34.694Z,4615
2017-05-18T14:03:34.642Z,4645
2017-05-18T14:04:34.639Z,4275
2017-05-18T14:05:34.623Z,4790
2017-05-18T14:06:34.525Z,4630
2017-05-18T14:07:34.303Z,1915
2017-05-18T14:08:34.612Z,1610
2017-05-18T14:09:34.297Z,1400
2017-05-18T14:10:34.798Z,1485
2017-05-18T14:11:34.277Z,1520
2017-05-18T14:12:34.572Z,1715
2017-05-18T14:13:34.579Z,2245
2017-05-18T14:14:34.554Z,2740
2017-05-18T14:15:34.753Z,2180
2017-05-18T14:16:34.245Z,2620
2017-05-18T14:17:34.237Z,2735
2017-05-18T14:18:34.517Z,2320
2017-05-18T14:19:34.534Z,1920
2017-05-18T14:20:34.510Z,1680
2017-05-18T14:21:34.211Z,1635
2017-05-18T14:22:34.203Z,2105
2017-05-18T14:23:34.247Z,1865
2017-05-18T14:24:33.875Z,2270
2017-05-18T14:25:34.217Z,2255
2017-05-18T14:26:34.158Z,4195
2017-05-18T14:27:34.145Z,4550
2017-05-18T14:28:34.150Z,4240
2017-05-18T14:29:34.138Z,4335
2017-05-18T14:30:34.127Z,1925
2017-05-18T14:31:34.125Z,1930
2017-05-18T14:32:34.129Z,2020
2017-05-18T14:33:34.421Z,1965
2017-05-18T14:34:34.108Z,2055
2017-05-18T14:35:34.393Z,1665
2017-05-18T14:36:34.084Z,1685
2017-05-18T14:37:33.782Z,1705
2017-05-18T14:38:34.073Z,2520
2017-05-18T14:39:34.455Z,3335
2017-05-18T14:40:34.065Z,1260
2017-05-18T14:41:34.058Z,1810
2017-05-18T14:42:34.035Z,2390
2017-05-18T14:43:34.039Z,1405
2017-05-18T14:44:34.345Z,1190
2017-05-18T14:45:34.024Z,1085
2017-05-18T14:46:34.329Z,1085
2017-05-18T14:47:34.325Z,1155
2017-05-18T14:48:34.516Z,1240
2017-05-18T14:49:34.312Z,1280
2017-05-18T14:50:33.998Z,1265
2017-05-18T14:51:34.287Z,1395
2017-05-18T14:52:34.279Z,1445
2017-05-18T14:53:34.272Z,1605
2017-05-18T14:54:34.267Z,1340
2017-05-18T14:55:34.255Z,1940
2017-05-18T14:56:34.252Z,2950
2017-05-18T14:57:34.256Z,1710
2017-05-18T14:58:34.244Z,1915
2017-05-18T14:59:33.933Z,2430
2017-05-18T15:00:34.214Z,1600
2017-05-18T15:01:33.952Z,1625
2017-05-18T15:02:33.904Z,1685
2017-05-18T15:03:33.882Z,1575
2017-05-18T15:04:34.191Z,1590
2017-05-18T15:05:34.186Z,1865
2017-05-18T15:06:34.167Z,1885
2017-05-18T15:07:34.172Z,2060
2017-05-18T15:08:34.154Z,2135
2017-05-18T15:09:34.209Z,1870
2017-05-18T15:10:34.144Z,1215
2017-05-18T15:11:34.143Z,1165
2017-05-18T15:12:33.832Z,1160
2017-05-18T15:13:34.114Z,1140
2017-05-18T15:14:34.111Z,1285
2017-05-18T15:15:34.104Z,1780
2017-05-18T15:16:33.791Z,2400
2017-05-18T15:17:34.087Z,1455
2017-05-18T15:18:34.074Z,1440
2017-05-18T15:19:34.071Z,1930
2017-05-18T15:20:34.068Z,2915
2017-05-18T15:21:33.760Z,3145
2017-05-18T15:22:33.758Z,2950
2017-05-18T15:23:33.742Z,1640
2017-05-18T15:24:34.019Z,1305
2017-05-18T15:25:34.027Z,1150
2017-05-18T15:26:34.031Z,1075
2017-05-18T15:27:34.009Z,970
2017-05-18T15:28:33.998Z,870
2017-05-18T15:29:33.683Z,885
2017-05-18T15:30:33.685Z,940
2017-05-18T15:31:33.977Z,980
2017-05-18T15:32:33.972Z,975
2017-05-18T15:33:33.960Z,975
2017-05-18T15:34:33.960Z,1020
2017-05-18T15:35:33.959Z,1140
2017-05-18T15:36:33.935Z,1845
2017-05-18T15:37:33.930Z,1685
2017-05-18T15:38:33.925Z,2410
2017-05-18T15:39:33.902Z,2370
2017-05-18T15:40:33.955Z,1545
2017-05-18T15:41:33.898Z,1345
2017-05-18T15:42:33.904Z,2075
2017-05-18T15:43:33.884Z,1825
2017-05-18T15:44:33.885Z,1810
2017-05-18T15:45:33.867Z,1190
2017-05-18T15:46:33.556Z,1125
2017-05-18T15:47:33.539Z,1080
2017-05-18T15:48:33.843Z,1030
2017-05-18T15:49:33.838Z,995
2017-05-18T15:50:33.818Z,945
2017-05-18T15:51:33.821Z,885
2017-05-18T15:52:33.812Z,840
2017-05-18T15:53:33.509Z,800
2017-05-18T15:54:33.493Z,745
2017-05-18T15:55:33.783Z,680
2017-05-18T15:56:33.769Z,635
2017-05-18T15:57:33.765Z,580
2017-05-18T15:58:33.445Z,540
2017-05-18T15:59:33.763Z,510
2017-05-18T16:00:33.755Z,545
2017-05-18T16:01:33.735Z,600
2017-05-18T16:02:33.432Z,645
2017-05-18T16:03:33.737Z,630
2017-05-18T16:04:33.447Z,645
2017-05-18T16:05:33.704Z,710
2017-05-18T16:06:33.696Z,715
2017-05-18T16:07:33.690Z,655
2017-05-18T16:08:33.669Z,630
2017-05-18T16:09:33.666Z,640
2017-05-18T16:10:33.354Z,640
2017-05-18T16:11:33.640Z,625
2017-05-18T16:12:33.641Z,600
2017-05-18T16:13:33.649Z,595
2017-05-18T16:14:33.631Z,625
2017-05-18T16:15:33.300Z,635
2017-05-18T16:16:33.606Z,585
2017-05-18T16:17:33.606Z,540
2017-05-18T16:18:33.294Z,540
2017-05-18T16:19:33.598Z,575
2017-05-18T16:20:33.254Z,605
2017-05-18T16:21:33.577Z,590
2017-05-18T16:22:33.564Z,580
2017-05-18T16:23:33.556Z,610
2017-05-18T16:24:33.533Z,615
2017-05-18T16:25:33.537Z,595
2017-05-18T16:26:33.539Z,590
2017-05-18T16:27:33.568Z,645
2017-05-18T16:28:33.502Z,660
2017-05-18T16:29:33.501Z,660
2017-05-18T16:30:33.190Z,660
2017-05-18T16:31:33.183Z,665
2017-05-18T16:32:33.468Z,705
2017-05-18T16:33:33.470Z,775
2017-05-18T16:34:33.467Z,865
2017-05-18T16:35:33.146Z,990
2017-05-18T16:36:33.434Z,990
2017-05-18T16:37:33.119Z,1040
2017-05-18T16:38:33.116Z,1120
2017-05-18T16:39:32.810Z,930
2017-05-18T16:40:33.396Z,1045
2017-05-18T16:41:33.399Z,1685
2017-05-18T16:42:33.394Z,1405
2017-05-18T16:43:33.371Z,1265
2017-05-18T16:44:33.378Z,1050
2017-05-18T16:45:33.355Z,1760
2017-05-18T16:46:33.360Z,1580
2017-05-18T16:47:33.046Z,1015
2017-05-18T16:48:33.346Z,980
2017-05-18T16:49:33.325Z,935
2017-05-18T16:50:33.318Z,870
2017-05-18T16:51:33.310Z,815
2017-05-18T16:52:33.313Z,785
2017-05-18T16:53:33.306Z,1100
2017-05-18T16:54:33.290Z,810
2017-05-18T16:55:33.284Z,765
2017-05-18T16:56:33.283Z,725
2017-05-18T16:57:33.267Z,800
2017-05-18T16:58:33.272Z,840
2017-05-18T16:59:33.254Z,795
2017-05-18T17:00:32.948Z,800
2017-05-18T17:01:33.231Z,785
2017-05-18T17:02:32.919Z,795
2017-05-18T17:03:32.897Z,775
2017-05-18T17:04:33.216Z,730
2017-05-18T17:05:32.886Z,705
2017-05-18T17:06:33.195Z,755
2017-05-18T17:07:33.185Z,850
2017-05-18T17:08:33.171Z,850
2017-05-18T17:09:33.175Z,830
2017-05-18T17:10:33.164Z,855
2017-05-18T17:11:33.144Z,855
2017-05-18T17:12:33.142Z,840
2017-05-18T17:13:33.197Z,800
2017-05-18T17:14:33.132Z,775
2017-05-18T17:15:32.813Z,755
2017-05-18T17:16:33.112Z,760
2017-05-18T17:17:33.092Z,750
2017-05-18T17:18:33.091Z,710
2017-05-18T17:19:33.085Z,700
2017-05-18T17:20:33.069Z,725
2017-05-18T17:21:33.085Z,780
2017-05-18T17:22:32.761Z,820
2017-05-18T17:23:32.737Z,800
2017-05-18T17:24:33.105Z,750
2017-05-18T17:25:33.036Z,745
2017-05-18T17:26:33.015Z,740
2017-05-18T17:27:32.998Z,740
2017-05-18T17:28:32.404Z,730
2017-05-18T17:29:32.697Z,675
2017-05-18T17:30:32.974Z,615
2017-05-18T17:31:32.987Z,590
2017-05-18T17:32:32.980Z,565
2017-05-18T17:33:32.972Z,540
2017-05-18T17:34:32.973Z,525
2017-05-18T17:35:32.957Z,515
2017-05-18T17:36:32.936Z,485
2017-05-18T17:37:32.932Z,455
2017-05-18T17:38:32.929Z,435
2017-05-18T17:39:32.620Z,425
2017-05-18T17:40:32.594Z,425
2017-05-18T17:41:32.906Z,420
2017-05-18T17:42:32.580Z,410
2017-05-18T17:43:32.883Z,395
2017-05-18T17:44:32.872Z,380